createdAt,value
2022-11-23T00:01:19.132Z,9.38
2022-11-23T00:03:48.368Z,9.98
2022-11-23T00:06:16.283Z,10.80
2022-11-23T00:08:43.681Z,10.57
2022-11-23T00:11:11.014Z,12.93
2022-11-23T00:13:40.731Z,13.57
2022-11-23T00:16:14.065Z,7.25
2022-11-23T00:18:41.306Z,11.30
2022-11-23T00:21:09.534Z,13.82
2022-11-23T00:23:37.266Z,12.07
2022-11-23T00:26:05.120Z,12.10
2022-11-23T00:28:32.641Z,11.45
2022-11-23T00:30:59.892Z,15.70
2022-11-23T00:33:27.142Z,14.70
2022-11-23T00:36:01.424Z,14.07
2022-11-23T00:38:29.035Z,14.20
2022-11-23T00:41:03.146Z,13.95
2022-11-23T00:43:30.528Z,12.05
2022-11-23T00:46:07.288Z,14.10
2022-11-23T00:48:34.548Z,13.27
2022-11-23T00:51:02.789Z,11.43
2022-11-23T00:53:30.094Z,12.45
2022-11-23T00:55:57.939Z,13.35
2022-11-23T00:58:25.914Z,14.10
2022-11-23T01:01:00.743Z,12.55
2022-11-23T01:03:28.825Z,13.95
2022-11-23T01:05:56.067Z,12.35
2022-11-23T01:08:23.346Z,12.45
2022-11-23T01:10:50.562Z,11.27
2022-11-23T01:13:17.797Z,12.27
2022-11-23T01:15:51.592Z,12.48
2022-11-23T01:18:18.842Z,12.30
2022-11-23T01:20:46.111Z,11.43
2022-11-23T01:23:13.375Z,10.25
2022-11-23T01:25:40.975Z,11.25
2022-11-23T01:28:08.228Z,10.20
2022-11-23T01:30:36.555Z,11.15
2022-11-23T01:33:04.655Z,11.60
2022-11-23T01:35:31.935Z,10.43
2022-11-23T01:37:59.346Z,10.30
2022-11-23T01:40:26.640Z,11.93
2022-11-23T01:42:58.331Z,10.45
2022-11-23T01:45:37.757Z,11.93
2022-11-23T01:48:07.649Z,12.85
2022-11-23T01:50:34.956Z,13.97
2022-11-23T01:53:02.554Z,10.18
2022-11-23T01:55:29.821Z,11.07
2022-11-23T01:57:57.178Z,13.68
2022-11-23T02:00:25.063Z,13.77
2022-11-23T02:02:55.017Z,12.88
2022-11-23T02:05:23.838Z,16.03
2022-11-23T02:07:51.893Z,14.55
2022-11-23T02:10:19.446Z,17.85
2022-11-23T02:12:46.693Z,17.77
2022-11-23T02:15:14.021Z,16.10
2022-11-23T02:17:41.275Z,18.77
2022-11-23T02:20:10.345Z,18.25
2022-11-23T02:22:37.577Z,15.48
2022-11-23T02:25:08.073Z,18.17
2022-11-23T02:27:35.559Z,16.50
2022-11-23T02:30:03.540Z,13.93
2022-11-23T02:32:31.254Z,13.80
2022-11-23T02:34:58.572Z,15.27
2022-11-23T02:37:26.003Z,13.18
2022-11-23T02:39:54.718Z,17.33
2022-11-23T02:42:22.054Z,14.15
2022-11-23T02:44:56.883Z,13.73
2022-11-23T02:47:24.217Z,13.75
2022-11-23T02:49:51.501Z,16.70
2022-11-23T02:52:19.527Z,14.48
2022-11-23T02:54:46.884Z,13.18
2022-11-23T02:57:14.258Z,15.63
2022-11-23T02:59:41.532Z,15.15
2022-11-23T03:02:11.004Z,13.23
2022-11-23T03:04:38.223Z,14.45
2022-11-23T03:07:05.619Z,14.15
2022-11-23T03:09:33.204Z,12.57
2022-11-23T03:12:00.611Z,14.85
2022-11-23T03:14:27.945Z,12.32
2022-11-23T03:16:55.194Z,13.07
2022-11-23T03:19:22.429Z,12.88
2022-11-23T03:21:49.669Z,13.38
2022-11-23T03:24:17.517Z,12.48
2022-11-23T03:26:44.752Z,12.57
2022-11-23T03:29:11.986Z,15.73
2022-11-23T03:31:39.211Z,18.83
2022-11-23T03:34:06.476Z,20.55
2022-11-23T03:36:33.702Z,21.17
2022-11-23T03:39:00.981Z,19.10
2022-11-23T03:41:28.256Z,17.35
2022-11-23T03:43:55.603Z,16.50
2022-11-23T03:46:22.856Z,13.98
2022-11-23T03:48:50.104Z,13.77
2022-11-23T03:51:17.415Z,14.23
2022-11-23T03:53:44.698Z,12.80
2022-11-23T03:56:11.912Z,14.77
2022-11-23T03:58:39.169Z,11.82
2022-11-23T04:01:06.494Z,12.48
2022-11-23T04:03:33.841Z,13.60
2022-11-23T04:06:01.215Z,11.48
2022-11-23T04:08:28.505Z,11.18
2022-11-23T04:10:59.288Z,11.68
2022-11-23T04:15:53.664Z,11.05
2022-11-23T04:18:20.888Z,12.27
2022-11-23T04:20:48.137Z,9.98
2022-11-23T04:23:15.392Z,11.07
2022-11-23T04:25:43.101Z,14.70
2022-11-23T04:28:10.348Z,14.80
2022-11-23T04:30:37.576Z,14.38
2022-11-23T04:33:04.850Z,13.88
2022-11-23T04:35:32.241Z,17.00
2022-11-23T04:37:59.541Z,14.65
2022-11-23T04:40:26.848Z,14.52
2022-11-23T04:42:57.600Z,15.70
2022-11-23T04:45:27.755Z,16.38
2022-11-23T04:47:55.016Z,17.27
2022-11-23T04:50:22.290Z,18.35
2022-11-23T04:52:49.778Z,18.80
2022-11-23T04:55:17.141Z,18.20
2022-11-23T04:57:46.593Z,18.05
2022-11-23T05:00:15.509Z,18.45
2022-11-23T05:02:42.784Z,20.27
2022-11-23T05:05:10.562Z,17.67
2022-11-23T05:07:37.892Z,23.10
2022-11-23T05:10:05.869Z,17.83
2022-11-23T05:12:33.106Z,16.17
2022-11-23T05:15:00.384Z,16.10
2022-11-23T05:17:27.823Z,16.08
2022-11-23T05:19:56.281Z,16.33
2022-11-23T05:22:23.510Z,18.50
2022-11-23T05:24:50.791Z,17.67
2022-11-23T05:27:18.085Z,16.48
2022-11-23T05:29:45.288Z,16.50
2022-11-23T05:32:12.522Z,15.50
2022-11-23T05:34:39.804Z,15.43
2022-11-23T05:37:07.041Z,14.25
2022-11-23T05:39:34.690Z,13.85
2022-11-23T05:42:02.045Z,14.88
2022-11-23T05:44:29.297Z,15.95
2022-11-23T05:46:56.668Z,17.92
2022-11-23T05:49:23.910Z,18.50
2022-11-23T05:51:51.163Z,13.80
2022-11-23T05:54:18.590Z,15.48
2022-11-23T05:56:45.891Z,13.40
2022-11-23T05:59:13.166Z,17.05
2022-11-23T06:01:40.448Z,16.15
2022-11-23T06:04:07.819Z,15.55
2022-11-23T06:06:35.141Z,14.52
2022-11-23T06:09:02.534Z,15.25
2022-11-23T06:11:31.319Z,15.05
2022-11-23T06:13:58.600Z,14.55
2022-11-23T06:16:25.844Z,11.88
2022-11-23T06:18:53.110Z,15.73
2022-11-23T06:21:20.489Z,15.70
2022-11-23T06:23:48.385Z,14.05
2022-11-23T06:26:15.789Z,15.02
2022-11-23T06:28:43.045Z,14.70
2022-11-23T06:31:10.536Z,14.27
2022-11-23T06:33:37.801Z,16.92
2022-11-23T06:36:05.155Z,16.30
2022-11-23T06:38:32.463Z,14.48
2022-11-23T06:41:00.146Z,14.65
2022-11-23T06:43:27.785Z,16.40
2022-11-23T06:45:55.706Z,16.00
2022-11-23T06:48:23.061Z,14.93
2022-11-23T06:50:50.726Z,16.92
2022-11-23T06:53:19.009Z,14.25
2022-11-23T06:55:46.320Z,15.32
2022-11-23T06:58:13.600Z,17.23
2022-11-23T07:00:40.962Z,16.15
2022-11-23T07:03:08.313Z,20.08
2022-11-23T07:05:35.645Z,17.58
2022-11-23T07:08:02.923Z,16.67
2022-11-23T07:10:30.144Z,17.48
2022-11-23T07:13:03.529Z,20.60
2022-11-23T07:15:30.793Z,17.02
2022-11-23T07:17:58.056Z,14.82
2022-11-23T07:20:25.611Z,19.80
2022-11-23T07:23:06.651Z,16.23
2022-11-23T07:25:35.092Z,16.80
2022-11-23T07:28:03.083Z,18.77
2022-11-23T07:30:31.900Z,15.63
2022-11-23T07:33:02.655Z,18.67
2022-11-23T07:35:29.991Z,15.32
2022-11-23T07:37:57.338Z,14.40
2022-11-23T07:40:24.577Z,16.02
2022-11-23T07:42:51.830Z,18.52
2022-11-23T07:45:19.523Z,13.50
2022-11-23T07:47:46.888Z,16.27
2022-11-23T07:50:14.970Z,13.20
2022-11-23T07:52:42.315Z,14.02
2022-11-23T07:55:10.018Z,14.02
2022-11-23T07:57:37.266Z,14.02
2022-11-23T08:00:05.394Z,13.98
2022-11-23T08:02:32.876Z,14.27
2022-11-23T08:05:00.194Z,13.40
2022-11-23T08:07:27.469Z,13.00
2022-11-23T08:09:54.928Z,12.27
2022-11-23T08:12:22.169Z,12.63
2022-11-23T08:14:49.414Z,13.07
2022-11-23T08:17:16.684Z,12.30
2022-11-23T08:19:44.002Z,13.85
2022-11-23T08:22:15.492Z,16.23
2022-11-23T08:24:43.246Z,16.23
2022-11-23T08:27:10.650Z,15.65
2022-11-23T08:29:37.890Z,14.55
2022-11-23T08:32:05.220Z,14.80
2022-11-23T08:34:32.604Z,16.00
2022-11-23T08:36:59.998Z,15.57
2022-11-23T08:39:27.428Z,14.90
2022-11-23T08:41:54.826Z,16.17
2022-11-23T08:44:22.094Z,20.27
2022-11-23T08:46:49.393Z,14.77
2022-11-23T08:49:16.642Z,17.02
2022-11-23T08:51:49.698Z,13.43
2022-11-23T08:54:17.434Z,18.13
2022-11-23T08:56:44.759Z,16.83
2022-11-23T08:59:12.573Z,18.33
2022-11-23T09:01:39.930Z,15.98
2022-11-23T09:04:07.342Z,19.30
2022-11-23T09:06:34.970Z,18.23
2022-11-23T09:09:02.364Z,14.93
2022-11-23T09:11:29.645Z,15.80
2022-11-23T09:13:56.887Z,16.52
2022-11-23T09:16:24.168Z,15.63
2022-11-23T09:18:51.417Z,13.85
2022-11-23T09:21:18.745Z,15.38
2022-11-23T09:23:46.037Z,13.32
2022-11-23T09:26:13.292Z,14.95
2022-11-23T09:28:44.726Z,15.90
2022-11-23T09:31:12.391Z,19.52
2022-11-23T09:33:39.658Z,19.13
2022-11-23T09:36:07.123Z,15.48
2022-11-23T09:41:27.870Z,16.05
2022-11-23T09:44:03.311Z,16.73
2022-11-23T09:46:42.797Z,16.48
2022-11-23T09:49:14.265Z,15.30
2022-11-23T09:51:42.390Z,17.42
2022-11-23T09:54:20.371Z,17.25
2022-11-23T09:56:49.608Z,22.15
2022-11-23T09:59:37.666Z,25.98
2022-11-23T10:02:04.997Z,18.88
2022-11-23T10:04:35.043Z,24.30
2022-11-23T10:07:25.291Z,25.88
2022-11-23T10:10:10.229Z,14.50
2022-11-23T10:12:46.580Z,17.63
2022-11-23T10:15:14.312Z,16.30
2022-11-23T10:17:44.583Z,15.13
2022-11-23T10:20:30.910Z,13.60
2022-11-23T10:22:59.335Z,18.73
2022-11-23T10:25:28.478Z,16.85
2022-11-23T10:27:57.827Z,19.83
2022-11-23T10:30:25.161Z,20.02
2022-11-23T10:33:03.248Z,16.67
2022-11-23T10:35:31.028Z,16.63
2022-11-23T10:38:27.550Z,15.15
2022-11-23T10:41:06.879Z,18.17
2022-11-23T10:43:43.037Z,15.07
2022-11-23T10:46:28.101Z,15.38
2022-11-23T10:48:55.936Z,10.65
2022-11-23T10:51:32.351Z,13.68
2022-11-23T10:54:05.519Z,17.35
2022-11-23T10:56:34.538Z,15.07
2022-11-23T10:59:01.979Z,14.35
2022-11-23T11:01:30.525Z,14.70
2022-11-23T11:04:03.861Z,13.50
2022-11-23T11:06:33.705Z,16.08
2022-11-23T11:09:18.760Z,16.55
2022-11-23T11:11:50.860Z,16.98
2022-11-23T11:14:19.597Z,14.32
2022-11-23T11:16:51.113Z,12.07
2022-11-23T11:19:28.695Z,14.85
2022-11-23T11:21:56.099Z,13.10
2022-11-23T11:24:40.340Z,13.07
2022-11-23T11:27:13.301Z,14.07
2022-11-23T11:29:46.646Z,16.85
2022-11-23T11:32:16.923Z,12.40
2022-11-23T11:34:53.603Z,17.10
2022-11-23T11:37:37.735Z,12.73
2022-11-23T11:40:11.165Z,15.88
2022-11-23T11:42:41.921Z,13.73
2022-11-23T11:45:16.586Z,14.05
2022-11-23T11:47:50.071Z,17.35
2022-11-23T11:50:28.485Z,12.38
2022-11-23T11:53:05.762Z,14.20
2022-11-23T11:55:51.508Z,12.25
2022-11-23T11:58:18.909Z,15.55
2022-11-23T12:00:48.472Z,12.57
2022-11-23T12:03:54.286Z,13.93
2022-11-23T12:06:26.810Z,13.20
2022-11-23T12:09:03.981Z,12.32
2022-11-23T12:11:31.277Z,13.57
2022-11-23T12:14:02.403Z,13.50
2022-11-23T12:17:04.094Z,13.90
2022-11-23T12:19:40.451Z,14.30
2022-11-23T12:22:19.863Z,12.73
2022-11-23T12:24:50.271Z,17.77
2022-11-23T12:27:23.747Z,12.77
2022-11-23T12:30:05.168Z,16.70
2022-11-23T12:32:46.146Z,15.43
2022-11-23T12:37:52.679Z,20.60
2022-11-23T12:40:22.995Z,16.88
2022-11-23T12:42:52.915Z,15.73
2022-11-23T12:45:20.248Z,18.47
2022-11-23T12:47:54.861Z,14.88
2022-11-23T12:50:31.065Z,17.70
2022-11-23T12:53:10.545Z,17.58
2022-11-23T12:55:40.792Z,16.05
2022-11-23T12:58:18.096Z,16.17
2022-11-23T13:00:52.419Z,16.85
2022-11-23T13:03:20.227Z,15.30
2022-11-23T13:06:07.822Z,17.50
2022-11-23T13:08:47.358Z,20.08
2022-11-23T13:11:14.616Z,16.45
2022-11-23T13:13:49.364Z,15.15
2022-11-23T13:16:25.916Z,16.88
2022-11-23T13:19:15.621Z,17.73
2022-11-23T13:21:43.982Z,17.15
2022-11-23T13:24:26.454Z,17.90
2022-11-23T13:27:12.504Z,17.38
2022-11-23T13:29:51.762Z,14.38
2022-11-23T13:32:46.383Z,14.98
2022-11-23T13:35:19.518Z,14.95
2022-11-23T13:38:01.837Z,16.17
2022-11-23T13:40:33.186Z,15.55
2022-11-23T13:43:05.519Z,16.80
2022-11-23T13:45:37.201Z,15.57
2022-11-23T13:48:19.427Z,19.52
2022-11-23T13:50:59.472Z,15.73
2022-11-23T13:53:26.896Z,13.10
2022-11-23T13:55:56.480Z,13.18
2022-11-23T13:58:23.794Z,13.48
2022-11-23T14:00:54.233Z,15.18
2022-11-23T14:03:40.086Z,16.58
2022-11-23T14:06:12.279Z,13.68
2022-11-23T14:08:40.822Z,14.50
2022-11-23T14:11:13.491Z,17.95
2022-11-23T14:13:41.793Z,16.80
2022-11-23T14:16:13.952Z,16.23
2022-11-23T14:18:59.948Z,18.67
2022-11-23T14:21:41.186Z,17.60
2022-11-23T14:24:14.130Z,16.98
2022-11-23T14:26:48.921Z,16.55
2022-11-23T14:29:34.992Z,20.15
2022-11-23T14:32:02.298Z,21.98
2022-11-23T14:34:31.857Z,20.77
2022-11-23T14:37:12.434Z,14.07
2022-11-23T14:39:55.157Z,18.73
2022-11-23T14:42:23.900Z,17.77
2022-11-23T14:44:54.412Z,15.73
2022-11-23T14:47:28.949Z,13.85
2022-11-23T14:49:56.746Z,18.30
2022-11-23T14:52:32.285Z,19.50
2022-11-23T14:55:00.999Z,21.50
2022-11-23T14:57:30.623Z,19.20
2022-11-23T15:00:00.422Z,18.30
2022-11-23T15:02:41.444Z,19.92
2022-11-23T15:05:24.059Z,16.85
2022-11-23T15:07:55.138Z,18.77
2022-11-23T15:10:29.527Z,16.15
2022-11-23T15:12:57.454Z,19.25
2022-11-23T15:15:26.769Z,20.38
2022-11-23T15:17:58.649Z,21.33
2022-11-23T15:20:29.473Z,21.83
2022-11-23T15:25:24.217Z,21.83
2022-11-23T15:27:51.610Z,21.40
2022-11-23T15:30:22.983Z,20.45
2022-11-23T15:33:16.267Z,18.83
2022-11-23T15:35:43.560Z,17.23
2022-11-23T15:38:19.007Z,19.55
2022-11-23T15:40:50.533Z,20.77
2022-11-23T15:43:18.997Z,17.92
2022-11-23T15:45:46.360Z,18.77
2022-11-23T15:48:19.875Z,15.77
2022-11-23T15:51:03.039Z,18.40
2022-11-23T15:53:47.168Z,17.73
2022-11-23T15:56:23.229Z,17.45
2022-11-23T15:58:50.717Z,17.20
2022-11-23T16:01:18.236Z,17.65
2022-11-23T16:03:52.671Z,15.13
2022-11-23T16:06:24.784Z,17.35
2022-11-23T16:08:52.511Z,15.65
2022-11-23T16:11:21.280Z,15.15
2022-11-23T16:13:48.602Z,19.90
2022-11-23T16:16:18.833Z,16.02
2022-11-23T16:18:56.940Z,16.63
2022-11-23T16:21:25.725Z,20.67
2022-11-23T16:23:54.594Z,25.55
2022-11-23T16:26:30.109Z,23.67
2022-11-23T16:28:58.659Z,19.83
2022-11-23T16:31:29.729Z,20.92
2022-11-23T16:33:57.108Z,18.80
2022-11-23T16:36:27.418Z,17.80
2022-11-23T16:38:54.965Z,17.50
2022-11-23T16:41:22.218Z,14.98
2022-11-23T16:43:54.257Z,15.70
2022-11-23T16:46:22.123Z,14.88
2022-11-23T16:48:49.459Z,18.63
2022-11-23T16:51:16.796Z,17.92
2022-11-23T16:54:12.461Z,17.38
2022-11-23T16:56:32.416Z,16.80
2022-11-23T16:59:00.493Z,18.27
2022-11-23T17:01:29.944Z,20.38
2022-11-23T17:03:57.305Z,19.88
2022-11-23T17:06:24.655Z,17.13
2022-11-23T17:08:59.292Z,19.67
2022-11-23T17:11:28.280Z,15.25
2022-11-23T17:13:56.982Z,17.45
2022-11-23T17:16:25.273Z,16.05
2022-11-23T17:18:52.912Z,18.52
2022-11-23T17:21:20.361Z,18.25
2022-11-23T17:23:47.649Z,18.58
2022-11-23T17:26:31.992Z,18.95
2022-11-23T17:29:01.191Z,18.00
2022-11-23T17:31:28.577Z,17.33
2022-11-23T17:33:55.907Z,21.63
2022-11-23T17:36:23.323Z,23.40
2022-11-23T17:38:50.627Z,24.10
2022-11-23T17:41:18.114Z,24.17
2022-11-23T17:43:45.379Z,32.75
2022-11-23T17:46:20.604Z,31.23
2022-11-23T17:48:49.795Z,28.38
2022-11-23T17:51:17.035Z,33.33
2022-11-23T17:53:44.409Z,22.77
2022-11-23T17:56:16.027Z,21.15
2022-11-23T17:58:43.296Z,22.77
2022-11-23T18:01:15.192Z,22.60
2022-11-23T18:03:43.399Z,25.73
2022-11-23T18:06:21.658Z,23.70
2022-11-23T18:08:49.410Z,27.70
2022-11-23T18:11:17.239Z,23.98
2022-11-23T18:13:44.589Z,21.95
2022-11-23T18:16:12.170Z,24.15
2022-11-23T18:18:39.785Z,21.15
2022-11-23T18:21:07.604Z,20.42
2022-11-23T18:23:35.011Z,18.58
2022-11-23T18:26:03.658Z,20.00
2022-11-23T18:28:31.233Z,19.80
2022-11-23T18:30:58.769Z,18.13
2022-11-23T18:33:26.165Z,52.33
2022-11-23T18:35:53.455Z,38.38
2022-11-23T18:38:20.736Z,18.27
2022-11-23T18:40:47.978Z,19.13
2022-11-23T18:43:15.262Z,20.20
2022-11-23T18:45:43.160Z,20.63
2022-11-23T18:48:10.501Z,18.83
2022-11-23T18:50:38.041Z,20.58
2022-11-23T18:53:07.745Z,24.20
2022-11-23T18:55:35.036Z,17.80
2022-11-23T18:58:02.440Z,20.00
2022-11-23T19:00:29.727Z,18.23
2022-11-23T19:03:00.940Z,17.70
2022-11-23T19:05:28.929Z,17.58
2022-11-23T19:07:57.539Z,18.65
2022-11-23T19:10:24.854Z,20.23
2022-11-23T19:12:52.417Z,19.23
2022-11-23T19:15:19.717Z,17.35
2022-11-23T19:17:47.907Z,19.83
2022-11-23T19:20:15.526Z,21.42
2022-11-23T19:22:42.782Z,23.33
2022-11-23T19:25:10.113Z,20.92
2022-11-23T19:27:37.803Z,18.42
2022-11-23T19:30:05.942Z,17.88
2022-11-23T19:32:34.229Z,19.33
2022-11-23T19:35:01.798Z,20.02
2022-11-23T19:37:29.123Z,25.02
2022-11-23T19:39:56.398Z,25.75
2022-11-23T19:42:23.717Z,17.48
2022-11-23T19:44:51.024Z,16.70
2022-11-23T19:47:22.681Z,17.55
2022-11-23T19:49:50.519Z,16.55
2022-11-23T19:52:17.771Z,16.13
2022-11-23T19:54:45.514Z,15.18
2022-11-23T19:57:12.860Z,16.63
2022-11-23T19:59:40.203Z,17.33
2022-11-23T20:02:07.500Z,18.58
2022-11-23T20:04:34.858Z,22.48
2022-11-23T20:07:02.124Z,18.10
2022-11-23T20:09:29.361Z,22.20
2022-11-23T20:11:56.711Z,18.88
2022-11-23T20:14:24.111Z,15.93
2022-11-23T20:16:51.425Z,18.90
2022-11-23T20:19:18.729Z,14.43
2022-11-23T20:21:45.977Z,15.68
2022-11-23T20:24:14.259Z,17.38
2022-11-23T20:26:41.989Z,20.17
2022-11-23T20:29:09.734Z,15.65
2022-11-23T20:31:37.624Z,19.88
2022-11-23T20:34:07.399Z,15.00
2022-11-23T20:36:36.494Z,14.95
2022-11-23T20:39:05.680Z,15.35
2022-11-23T20:41:37.358Z,16.55
2022-11-23T20:44:06.243Z,18.75
2022-11-23T20:49:21.567Z,16.35
2022-11-23T20:51:48.857Z,15.18
2022-11-23T20:54:16.147Z,16.63
2022-11-23T20:56:43.435Z,15.88
2022-11-23T20:59:12.402Z,17.60
2022-11-23T21:01:41.006Z,17.73
2022-11-23T21:04:09.269Z,18.95
2022-11-23T21:06:39.369Z,14.82
2022-11-23T21:09:07.879Z,15.38
2022-11-23T21:11:54.535Z,17.63
2022-11-23T21:14:24.651Z,17.08
2022-11-23T21:16:56.909Z,15.43
2022-11-23T21:19:26.220Z,15.00
2022-11-23T21:21:54.012Z,17.10
2022-11-23T21:24:21.633Z,13.57
2022-11-23T21:26:48.895Z,12.05
2022-11-23T21:29:17.143Z,14.88
2022-11-23T21:31:45.069Z,12.55
2022-11-23T21:34:28.642Z,15.30
2022-11-23T21:36:56.764Z,14.45
2022-11-23T21:39:24.515Z,15.93
2022-11-23T21:41:53.413Z,13.57
2022-11-23T21:44:22.251Z,13.18
2022-11-23T21:46:49.672Z,14.48
2022-11-23T21:49:19.432Z,18.10
2022-11-23T21:51:46.948Z,17.13
2022-11-23T21:54:15.861Z,15.50
2022-11-23T21:56:44.393Z,18.60
2022-11-23T21:59:11.802Z,16.60
2022-11-23T22:01:39.473Z,14.70
2022-11-23T22:04:09.004Z,19.15
2022-11-23T22:06:37.172Z,13.27
2022-11-23T22:09:05.146Z,16.08
2022-11-23T22:11:34.098Z,13.35
2022-11-23T22:14:02.739Z,14.98
2022-11-23T22:16:31.802Z,17.63
2022-11-23T22:18:59.455Z,12.75
2022-11-23T22:21:27.747Z,12.25
2022-11-23T22:23:55.379Z,13.18
2022-11-23T22:26:23.026Z,14.10
2022-11-23T22:28:50.962Z,13.52
2022-11-23T22:31:20.192Z,16.83
2022-11-23T22:33:47.534Z,12.93
2022-11-23T22:36:16.412Z,15.07
2022-11-23T22:38:44.116Z,16.48
2022-11-23T22:41:12.691Z,14.40
2022-11-23T22:43:40.146Z,12.98
2022-11-23T22:46:09.708Z,14.15
2022-11-23T22:48:37.953Z,12.73
2022-11-23T22:51:05.510Z,13.25
2022-11-23T22:53:33.334Z,11.68
2022-11-23T22:56:02.596Z,12.40
2022-11-23T22:58:30.667Z,10.43
2022-11-23T23:00:58.385Z,13.65
2022-11-23T23:03:25.855Z,12.07
2022-11-23T23:05:57.280Z,11.60
2022-11-23T23:08:25.456Z,11.80
2022-11-23T23:10:53.050Z,10.52
2022-11-23T23:13:21.210Z,10.88
2022-11-23T23:15:48.612Z,10.85
2022-11-23T23:18:16.386Z,12.50
2022-11-23T23:20:45.295Z,13.18
2022-11-23T23:23:12.579Z,11.40
2022-11-23T23:25:39.862Z,11.25
2022-11-23T23:28:07.230Z,14.07
2022-11-23T23:30:34.604Z,12.80
2022-11-23T23:33:01.895Z,14.15
2022-11-23T23:35:29.199Z,14.20
2022-11-23T23:37:56.488Z,11.60
2022-11-23T23:40:23.765Z,11.07
2022-11-23T23:42:51.165Z,12.23
2022-11-23T23:45:18.445Z,12.48
2022-11-23T23:47:45.810Z,13.70
2022-11-23T23:50:13.101Z,12.38
2022-11-23T23:52:40.782Z,12.57
2022-11-23T23:55:08.764Z,12.80
2022-11-23T23:57:36.216Z,11.00
